sensor_id;sensor_type;location;lat;lon;timestamp;P1;durP1;ratioP1;P2;durP2;ratioP2
75437;SDS011;64015;49.392;15.582;2023-06-22T00:17:31;11.75;;;3.78;;
75437;SDS011;64015;49.392;15.582;2023-06-22T00:22:06;10.60;;;3.35;;
75437;SDS011;64015;49.392;15.582;2023-06-22T00:26:38;7.45;;;3.65;;
75437;SDS011;64015;49.392;15.582;2023-06-22T00:40:06;9.02;;;3.58;;
75437;SDS011;64015;49.392;15.582;2023-06-22T00:49:15;8.57;;;3.58;;
75437;SDS011;64015;49.392;15.582;2023-06-22T00:58:35;11.77;;;3.67;;
75437;SDS011;64015;49.392;15.582;2023-06-22T01:01:46;6.35;;;3.25;;
75437;SDS011;64015;49.392;15.582;2023-06-22T01:05:41;7.82;;;3.03;;
75437;SDS011;64015;49.392;15.582;2023-06-22T01:09:39;15.25;;;3.80;;
75437;SDS011;64015;49.392;15.582;2023-06-22T01:14:18;7.65;;;3.60;;
75437;SDS011;64015;49.392;15.582;2023-06-22T01:31:50;10.40;;;3.60;;
75437;SDS011;64015;49.392;15.582;2023-06-22T01:35:52;9.32;;;3.90;;
75437;SDS011;64015;49.392;15.582;2023-06-22T01:39:44;7.38;;;3.42;;
75437;SDS011;64015;49.392;15.582;2023-06-22T01:48:32;9.93;;;3.00;;
75437;SDS011;64015;49.392;15.582;2023-06-22T01:52:23;13.02;;;4.10;;
75437;SDS011;64015;49.392;15.582;2023-06-22T01:55:53;13.02;;;3.60;;
75437;SDS011;64015;49.392;15.582;2023-06-22T01:59:55;8.32;;;3.53;;
75437;SDS011;64015;49.392;15.582;2023-06-22T02:03:38;7.68;;;3.78;;
75437;SDS011;64015;49.392;15.582;2023-06-22T02:11:53;15.27;;;3.97;;
75437;SDS011;64015;49.392;15.582;2023-06-22T02:15:32;9.20;;;3.25;;
75437;SDS011;64015;49.392;15.582;2023-06-22T02:22:53;12.30;;;3.88;;
75437;SDS011;64015;49.392;15.582;2023-06-22T02:26:41;8.25;;;3.92;;
75437;SDS011;64015;49.392;15.582;2023-06-22T02:30:27;8.82;;;3.85;;
75437;SDS011;64015;49.392;15.582;2023-06-22T02:34:31;10.15;;;3.90;;
75437;SDS011;64015;49.392;15.582;2023-06-22T02:38:41;8.80;;;3.83;;
75437;SDS011;64015;49.392;15.582;2023-06-22T02:42:30;8.20;;;3.72;;
75437;SDS011;64015;49.392;15.582;2023-06-22T02:50:34;9.10;;;4.00;;
75437;SDS011;64015;49.392;15.582;2023-06-22T02:54:41;10.20;;;3.90;;
75437;SDS011;64015;49.392;15.582;2023-06-22T02:58:27;8.13;;;4.07;;
75437;SDS011;64015;49.392;15.582;2023-06-22T03:02:05;9.65;;;3.60;;
75437;SDS011;64015;49.392;15.582;2023-06-22T03:05:38;6.88;;;3.28;;
75437;SDS011;64015;49.392;15.582;2023-06-22T03:19:32;10.60;;;3.85;;
75437;SDS011;64015;49.392;15.582;2023-06-22T03:23:51;7.03;;;3.30;;
75437;SDS011;64015;49.392;15.582;2023-06-22T03:40:43;7.97;;;3.35;;
75437;SDS011;64015;49.392;15.582;2023-06-22T03:54:01;9.85;;;3.45;;
75437;SDS011;64015;49.392;15.582;2023-06-22T03:58:24;10.10;;;4.32;;
75437;SDS011;64015;49.392;15.582;2023-06-22T04:02:10;9.27;;;4.47;;
75437;SDS011;64015;49.392;15.582;2023-06-22T04:15:48;10.57;;;4.75;;
75437;SDS011;64015;49.392;15.582;2023-06-22T04:24:10;11.80;;;4.47;;
75437;SDS011;64015;49.392;15.582;2023-06-22T04:38:02;12.18;;;5.25;;
75437;SDS011;64015;49.392;15.582;2023-06-22T04:42:00;11.45;;;6.28;;
75437;SDS011;64015;49.392;15.582;2023-06-22T04:50:17;8.88;;;4.80;;
75437;SDS011;64015;49.392;15.582;2023-06-22T04:58:45;11.98;;;5.47;;
75437;SDS011;64015;49.392;15.582;2023-06-22T05:02:24;10.77;;;6.20;;
75437;SDS011;64015;49.392;15.582;2023-06-22T05:06:05;10.50;;;5.72;;
75437;SDS011;64015;49.392;15.582;2023-06-22T05:09:45;13.80;;;6.20;;
75437;SDS011;64015;49.392;15.582;2023-06-22T05:13:16;13.05;;;5.60;;
75437;SDS011;64015;49.392;15.582;2023-06-22T05:16:58;11.55;;;5.25;;
75437;SDS011;64015;49.392;15.582;2023-06-22T05:20:30;10.35;;;5.78;;
75437;SDS011;64015;49.392;15.582;2023-06-22T05:24:07;10.30;;;6.22;;
75437;SDS011;64015;49.392;15.582;2023-06-22T05:27:50;11.27;;;6.07;;
75437;SDS011;64015;49.392;15.582;2023-06-22T05:31:44;12.65;;;6.43;;
75437;SDS011;64015;49.392;15.582;2023-06-22T05:35:36;11.55;;;6.43;;
75437;SDS011;64015;49.392;15.582;2023-06-22T05:39:21;13.18;;;5.82;;
75437;SDS011;64015;49.392;15.582;2023-06-22T05:50:42;13.52;;;7.50;;
75437;SDS011;64015;49.392;15.582;2023-06-22T05:54:19;13.95;;;7.20;;
75437;SDS011;64015;49.392;15.582;2023-06-22T05:57:49;10.55;;;6.05;;
75437;SDS011;64015;49.392;15.582;2023-06-22T06:01:35;11.60;;;6.40;;
75437;SDS011;64015;49.392;15.582;2023-06-22T06:04:59;10.98;;;6.80;;
75437;SDS011;64015;49.392;15.582;2023-06-22T06:08:32;13.07;;;7.30;;
75437;SDS011;64015;49.392;15.582;2023-06-22T06:15:52;12.27;;;6.25;;
75437;SDS011;64015;49.392;15.582;2023-06-22T06:19:16;10.82;;;6.80;;
75437;SDS011;64015;49.392;15.582;2023-06-22T06:22:44;13.68;;;7.05;;
75437;SDS011;64015;49.392;15.582;2023-06-22T06:26:29;11.15;;;6.65;;
75437;SDS011;64015;49.392;15.582;2023-06-22T06:29:54;11.20;;;6.47;;
75437;SDS011;64015;49.392;15.582;2023-06-22T06:33:19;11.23;;;6.93;;
75437;SDS011;64015;49.392;15.582;2023-06-22T06:36:43;12.48;;;7.45;;
75437;SDS011;64015;49.392;15.582;2023-06-22T06:40:12;17.63;;;7.47;;
75437;SDS011;64015;49.392;15.582;2023-06-22T06:43:36;13.55;;;7.75;;
75437;SDS011;64015;49.392;15.582;2023-06-22T06:47:03;16.00;;;7.32;;
75437;SDS011;64015;49.392;15.582;2023-06-22T06:50:27;13.13;;;7.10;;
75437;SDS011;64015;49.392;15.582;2023-06-22T06:53:55;10.30;;;6.95;;
75437;SDS011;64015;49.392;15.582;2023-06-22T06:57:58;12.40;;;7.05;;
75437;SDS011;64015;49.392;15.582;2023-06-22T07:01:26;11.85;;;6.63;;
75437;SDS011;64015;49.392;15.582;2023-06-22T07:04:52;10.40;;;6.80;;
75437;SDS011;64015;49.392;15.582;2023-06-22T07:08:17;12.13;;;7.72;;
75437;SDS011;64015;49.392;15.582;2023-06-22T07:11:41;10.57;;;7.18;;
75437;SDS011;64015;49.392;15.582;2023-06-22T07:15:06;11.70;;;7.00;;
75437;SDS011;64015;49.392;15.582;2023-06-22T07:18:30;10.68;;;6.95;;
75437;SDS011;64015;49.392;15.582;2023-06-22T07:21:56;14.95;;;6.85;;
75437;SDS011;64015;49.392;15.582;2023-06-22T07:25:20;17.10;;;7.65;;
75437;SDS011;64015;49.392;15.582;2023-06-22T07:28:44;12.65;;;7.18;;
75437;SDS011;64015;49.392;15.582;2023-06-22T07:32:08;11.50;;;6.43;;
75437;SDS011;64015;49.392;15.582;2023-06-22T07:35:33;12.60;;;7.22;;
75437;SDS011;64015;49.392;15.582;2023-06-22T07:38:58;9.35;;;7.07;;
75437;SDS011;64015;49.392;15.582;2023-06-22T07:42:42;11.23;;;6.97;;
75437;SDS011;64015;49.392;15.582;2023-06-22T07:46:12;13.30;;;7.30;;
75437;SDS011;64015;49.392;15.582;2023-06-22T07:50:02;9.95;;;7.25;;
75437;SDS011;64015;49.392;15.582;2023-06-22T07:53:27;11.02;;;7.30;;
75437;SDS011;64015;49.392;15.582;2023-06-22T07:56:54;15.88;;;7.47;;
75437;SDS011;64015;49.392;15.582;2023-06-22T08:00:21;12.10;;;7.47;;
75437;SDS011;64015;49.392;15.582;2023-06-22T08:03:48;12.65;;;7.63;;
75437;SDS011;64015;49.392;15.582;2023-06-22T08:07:22;12.52;;;7.28;;
75437;SDS011;64015;49.392;15.582;2023-06-22T08:10:46;12.10;;;8.10;;
75437;SDS011;64015;49.392;15.582;2023-06-22T08:14:14;10.82;;;7.22;;
75437;SDS011;64015;49.392;15.582;2023-06-22T08:17:38;11.48;;;7.38;;
75437;SDS011;64015;49.392;15.582;2023-06-22T08:21:05;11.45;;;7.43;;
75437;SDS011;64015;49.392;15.582;2023-06-22T08:24:30;12.50;;;8.07;;
75437;SDS011;64015;49.392;15.582;2023-06-22T08:27:54;11.27;;;7.97;;
75437;SDS011;64015;49.392;15.582;2023-06-22T08:31:18;11.60;;;8.38;;
75437;SDS011;64015;49.392;15.582;2023-06-22T08:34:46;11.85;;;8.25;;
75437;SDS011;64015;49.392;15.582;2023-06-22T08:38:10;12.65;;;8.68;;
75437;SDS011;64015;49.392;15.582;2023-06-22T08:41:34;12.20;;;8.43;;
75437;SDS011;64015;49.392;15.582;2023-06-22T08:50:09;11.80;;;8.43;;
75437;SDS011;64015;49.392;15.582;2023-06-22T08:54:03;11.57;;;7.97;;
75437;SDS011;64015;49.392;15.582;2023-06-22T08:57:30;11.60;;;8.32;;
75437;SDS011;64015;49.392;15.582;2023-06-22T09:00:54;10.13;;;7.65;;
75437;SDS011;64015;49.392;15.582;2023-06-22T09:08:07;10.60;;;7.72;;
75437;SDS011;64015;49.392;15.582;2023-06-22T09:11:34;14.82;;;7.82;;
75437;SDS011;64015;49.392;15.582;2023-06-22T09:15:05;11.82;;;7.38;;
75437;SDS011;64015;49.392;15.582;2023-06-22T09:18:29;11.82;;;7.57;;
75437;SDS011;64015;49.392;15.582;2023-06-22T09:21:54;14.27;;;8.52;;
75437;SDS011;64015;49.392;15.582;2023-06-22T09:25:18;11.75;;;8.60;;
75437;SDS011;64015;49.392;15.582;2023-06-22T09:28:49;11.95;;;7.93;;
75437;SDS011;64015;49.392;15.582;2023-06-22T09:32:14;9.55;;;7.50;;
75437;SDS011;64015;49.392;15.582;2023-06-22T09:35:38;11.60;;;8.43;;
75437;SDS011;64015;49.392;15.582;2023-06-22T09:39:04;12.02;;;8.52;;
75437;SDS011;64015;49.392;15.582;2023-06-22T09:42:36;13.80;;;9.95;;
75437;SDS011;64015;49.392;15.582;2023-06-22T09:46:01;11.40;;;8.52;;
75437;SDS011;64015;49.392;15.582;2023-06-22T09:49:40;12.65;;;8.70;;
75437;SDS011;64015;49.392;15.582;2023-06-22T09:53:04;12.80;;;9.10;;
75437;SDS011;64015;49.392;15.582;2023-06-22T09:56:30;12.55;;;8.65;;
75437;SDS011;64015;49.392;15.582;2023-06-22T09:59:55;12.90;;;8.75;;
75437;SDS011;64015;49.392;15.582;2023-06-22T10:03:20;13.07;;;9.07;;
75437;SDS011;64015;49.392;15.582;2023-06-22T10:06:44;12.02;;;9.13;;
75437;SDS011;64015;49.392;15.582;2023-06-22T10:10:12;12.85;;;9.25;;
75437;SDS011;64015;49.392;15.582;2023-06-22T10:13:36;12.30;;;9.23;;
75437;SDS011;64015;49.392;15.582;2023-06-22T10:17:04;11.30;;;8.57;;
75437;SDS011;64015;49.392;15.582;2023-06-22T10:20:28;10.38;;;8.15;;
75437;SDS011;64015;49.392;15.582;2023-06-22T10:23:54;12.32;;;8.32;;
75437;SDS011;64015;49.392;15.582;2023-06-22T10:27:18;12.02;;;8.57;;
75437;SDS011;64015;49.392;15.582;2023-06-22T10:30:42;12.50;;;8.43;;
75437;SDS011;64015;49.392;15.582;2023-06-22T10:34:54;12.02;;;8.75;;
75437;SDS011;64015;49.392;15.582;2023-06-22T10:38:21;12.02;;;8.57;;
75437;SDS011;64015;49.392;15.582;2023-06-22T10:41:45;11.70;;;8.98;;
75437;SDS011;64015;49.392;15.582;2023-06-22T10:45:10;10.13;;;8.23;;
75437;SDS011;64015;49.392;15.582;2023-06-22T10:48:34;11.48;;;7.80;;
75437;SDS011;64015;49.392;15.582;2023-06-22T10:51:58;12.65;;;8.52;;
75437;SDS011;64015;49.392;15.582;2023-06-22T10:55:23;10.60;;;8.00;;
75437;SDS011;64015;49.392;15.582;2023-06-22T10:58:47;10.20;;;7.80;;
75437;SDS011;64015;49.392;15.582;2023-06-22T11:02:11;12.65;;;9.52;;
75437;SDS011;64015;49.392;15.582;2023-06-22T11:05:35;9.57;;;7.75;;
75437;SDS011;64015;49.392;15.582;2023-06-22T11:08:59;10.02;;;7.28;;
75437;SDS011;64015;49.392;15.582;2023-06-22T11:12:24;10.25;;;7.40;;
75437;SDS011;64015;49.392;15.582;2023-06-22T11:15:48;10.98;;;7.80;;
75437;SDS011;64015;49.392;15.582;2023-06-22T11:19:12;12.18;;;8.57;;
75437;SDS011;64015;49.392;15.582;2023-06-22T11:22:39;9.38;;;7.38;;
75437;SDS011;64015;49.392;15.582;2023-06-22T11:26:04;10.30;;;7.40;;
75437;SDS011;64015;49.392;15.582;2023-06-22T11:29:28;11.93;;;6.85;;
75437;SDS011;64015;49.392;15.582;2023-06-22T11:32:20;9.57;;;7.50;;
75437;SDS011;64015;49.392;15.582;2023-06-22T11:34:46;12.13;;;8.18;;
75437;SDS011;64015;49.392;15.582;2023-06-22T11:37:12;13.93;;;7.15;;
75437;SDS011;64015;49.392;15.582;2023-06-22T11:39:38;11.10;;;7.82;;
75437;SDS011;64015;49.392;15.582;2023-06-22T11:44:29;12.60;;;8.25;;
75437;SDS011;64015;49.392;15.582;2023-06-22T11:47:53;11.32;;;8.18;;
75437;SDS011;64015;49.392;15.582;2023-06-22T11:51:17;12.52;;;8.52;;
75437;SDS011;64015;49.392;15.582;2023-06-22T11:54:37;12.32;;;8.63;;
75437;SDS011;64015;49.392;15.582;2023-06-22T11:58:02;14.23;;;9.70;;
75437;SDS011;64015;49.392;15.582;2023-06-22T12:01:26;12.80;;;9.00;;
75437;SDS011;64015;49.392;15.582;2023-06-22T12:04:15;12.65;;;8.30;;
75437;SDS011;64015;49.392;15.582;2023-06-22T12:06:42;11.95;;;8.70;;
75437;SDS011;64015;49.392;15.582;2023-06-22T12:09:09;10.68;;;7.93;;
75437;SDS011;64015;49.392;15.582;2023-06-22T12:12:33;11.45;;;8.50;;
75437;SDS011;64015;49.392;15.582;2023-06-22T12:15:58;9.88;;;8.00;;
75437;SDS011;64015;49.392;15.582;2023-06-22T12:19:03;10.98;;;8.48;;
75437;SDS011;64015;49.392;15.582;2023-06-22T12:21:28;8.90;;;7.70;;
75437;SDS011;64015;49.392;15.582;2023-06-22T12:23:54;10.45;;;8.40;;
75437;SDS011;64015;49.392;15.582;2023-06-22T12:26:20;14.35;;;8.05;;
75437;SDS011;64015;49.392;15.582;2023-06-22T12:28:46;10.02;;;7.70;;
75437;SDS011;64015;49.392;15.582;2023-06-22T12:31:14;11.02;;;8.13;;
75437;SDS011;64015;49.392;15.582;2023-06-22T12:33:40;10.70;;;7.82;;
75437;SDS011;64015;49.392;15.582;2023-06-22T12:36:05;11.05;;;7.47;;
75437;SDS011;64015;49.392;15.582;2023-06-22T12:38:31;9.02;;;7.38;;
75437;SDS011;64015;49.392;15.582;2023-06-22T12:40:56;10.25;;;7.28;;
75437;SDS011;64015;49.392;15.582;2023-06-22T12:43:22;10.30;;;7.43;;
75437;SDS011;64015;49.392;15.582;2023-06-22T12:45:48;9.82;;;7.03;;
75437;SDS011;64015;49.392;15.582;2023-06-22T12:48:14;10.98;;;8.25;;
75437;SDS011;64015;49.392;15.582;2023-06-22T12:50:39;12.57;;;7.30;;
75437;SDS011;64015;49.392;15.582;2023-06-22T12:53:05;10.18;;;7.45;;
75437;SDS011;64015;49.392;15.582;2023-06-22T12:55:31;14.02;;;7.65;;
75437;SDS011;64015;49.392;15.582;2023-06-22T12:57:57;11.63;;;7.28;;
75437;SDS011;64015;49.392;15.582;2023-06-22T13:00:23;9.30;;;7.18;;
75437;SDS011;64015;49.392;15.582;2023-06-22T13:02:49;10.05;;;7.95;;
75437;SDS011;64015;49.392;15.582;2023-06-22T13:05:14;10.57;;;7.85;;
75437;SDS011;64015;49.392;15.582;2023-06-22T13:07:40;9.32;;;7.05;;
75437;SDS011;64015;49.392;15.582;2023-06-22T13:10:08;8.95;;;7.10;;
75437;SDS011;64015;49.392;15.582;2023-06-22T13:12:34;8.80;;;6.78;;
75437;SDS011;64015;49.392;15.582;2023-06-22T13:14:59;8.18;;;6.95;;
75437;SDS011;64015;49.392;15.582;2023-06-22T13:17:25;10.85;;;7.10;;
75437;SDS011;64015;49.392;15.582;2023-06-22T13:19:51;10.05;;;7.25;;
75437;SDS011;64015;49.392;15.582;2023-06-22T13:22:28;10.90;;;7.07;;
75437;SDS011;64015;49.392;15.582;2023-06-22T13:24:55;11.88;;;6.88;;
75437;SDS011;64015;49.392;15.582;2023-06-22T13:27:22;10.40;;;7.82;;
75437;SDS011;64015;49.392;15.582;2023-06-22T13:29:48;8.43;;;6.43;;
75437;SDS011;64015;49.392;15.582;2023-06-22T13:32:13;11.02;;;7.18;;
75437;SDS011;64015;49.392;15.582;2023-06-22T13:34:39;9.57;;;6.57;;
75437;SDS011;64015;49.392;15.582;2023-06-22T13:37:05;8.82;;;6.68;;
75437;SDS011;64015;49.392;15.582;2023-06-22T13:39:31;10.85;;;6.90;;
75437;SDS011;64015;49.392;15.582;2023-06-22T13:41:57;10.73;;;6.78;;
75437;SDS011;64015;49.392;15.582;2023-06-22T13:44:23;10.50;;;7.22;;
75437;SDS011;64015;49.392;15.582;2023-06-22T13:46:53;8.48;;;6.65;;
75437;SDS011;64015;49.392;15.582;2023-06-22T13:49:18;10.25;;;6.60;;
75437;SDS011;64015;49.392;15.582;2023-06-22T13:51:44;9.02;;;7.65;;
75437;SDS011;64015;49.392;15.582;2023-06-22T13:54:09;9.85;;;7.15;;
75437;SDS011;64015;49.392;15.582;2023-06-22T13:56:35;10.32;;;6.88;;
75437;SDS011;64015;49.392;15.582;2023-06-22T13:59:01;12.35;;;7.82;;
75437;SDS011;64015;49.392;15.582;2023-06-22T14:01:27;9.90;;;7.47;;
75437;SDS011;64015;49.392;15.582;2023-06-22T14:03:52;9.02;;;7.32;;
75437;SDS011;64015;49.392;15.582;2023-06-22T14:06:18;10.02;;;9.02;;
75437;SDS011;64015;49.392;15.582;2023-06-22T14:08:43;10.32;;;7.50;;
75437;SDS011;64015;49.392;15.582;2023-06-22T14:11:12;8.00;;;6.32;;
75437;SDS011;64015;49.392;15.582;2023-06-22T14:13:38;9.60;;;7.43;;
75437;SDS011;64015;49.392;15.582;2023-06-22T14:16:08;7.72;;;6.57;;
75437;SDS011;64015;49.392;15.582;2023-06-22T14:18:34;9.10;;;7.50;;
75437;SDS011;64015;49.392;15.582;2023-06-22T14:21:00;11.98;;;7.25;;
75437;SDS011;64015;49.392;15.582;2023-06-22T14:23:26;8.57;;;7.60;;
75437;SDS011;64015;49.392;15.582;2023-06-22T14:25:52;9.13;;;7.68;;
75437;SDS011;64015;49.392;15.582;2023-06-22T14:28:18;9.15;;;7.22;;
75437;SDS011;64015;49.392;15.582;2023-06-22T14:30:44;11.88;;;7.82;;
75437;SDS011;64015;49.392;15.582;2023-06-22T14:33:09;9.85;;;7.43;;
75437;SDS011;64015;49.392;15.582;2023-06-22T14:35:36;9.13;;;7.93;;
75437;SDS011;64015;49.392;15.582;2023-06-22T14:38:01;8.90;;;7.35;;
75437;SDS011;64015;49.392;15.582;2023-06-22T14:40:27;8.98;;;7.18;;
75437;SDS011;64015;49.392;15.582;2023-06-22T14:42:52;11.02;;;7.60;;
75437;SDS011;64015;49.392;15.582;2023-06-22T14:45:18;10.32;;;6.70;;
75437;SDS011;64015;49.392;15.582;2023-06-22T14:47:44;10.23;;;7.57;;
75437;SDS011;64015;49.392;15.582;2023-06-22T14:50:10;10.48;;;7.75;;
75437;SDS011;64015;49.392;15.582;2023-06-22T14:52:36;9.85;;;8.10;;
75437;SDS011;64015;49.392;15.582;2023-06-22T14:55:02;9.60;;;7.20;;
75437;SDS011;64015;49.392;15.582;2023-06-22T14:57:28;9.57;;;7.25;;
75437;SDS011;64015;49.392;15.582;2023-06-22T14:59:53;10.00;;;7.57;;
75437;SDS011;64015;49.392;15.582;2023-06-22T15:02:21;10.23;;;7.05;;
75437;SDS011;64015;49.392;15.582;2023-06-22T15:04:47;9.15;;;7.53;;
75437;SDS011;64015;49.392;15.582;2023-06-22T15:07:14;9.52;;;6.93;;
75437;SDS011;64015;49.392;15.582;2023-06-22T15:09:40;12.55;;;7.22;;
75437;SDS011;64015;49.392;15.582;2023-06-22T15:12:07;10.85;;;7.28;;
75437;SDS011;64015;49.392;15.582;2023-06-22T15:14:39;9.75;;;7.25;;
75437;SDS011;64015;49.392;15.582;2023-06-22T15:17:06;13.20;;;7.50;;
75437;SDS011;64015;49.392;15.582;2023-06-22T15:19:35;11.43;;;7.78;;
75437;SDS011;64015;49.392;15.582;2023-06-22T15:22:02;7.85;;;6.93;;
75437;SDS011;64015;49.392;15.582;2023-06-22T15:24:32;9.73;;;6.68;;
75437;SDS011;64015;49.392;15.582;2023-06-22T15:26:59;9.80;;;7.15;;
75437;SDS011;64015;49.392;15.582;2023-06-22T15:29:24;9.05;;;6.82;;
75437;SDS011;64015;49.392;15.582;2023-06-22T15:31:51;9.25;;;7.10;;
75437;SDS011;64015;49.392;15.582;2023-06-22T15:34:20;8.93;;;7.50;;
75437;SDS011;64015;49.392;15.582;2023-06-22T15:36:45;7.70;;;6.32;;
75437;SDS011;64015;49.392;15.582;2023-06-22T15:39:11;8.60;;;6.18;;
75437;SDS011;64015;49.392;15.582;2023-06-22T15:41:40;10.05;;;6.13;;
75437;SDS011;64015;49.392;15.582;2023-06-22T15:44:07;8.15;;;6.57;;
75437;SDS011;64015;49.392;15.582;2023-06-22T15:46:33;9.18;;;6.38;;
75437;SDS011;64015;49.392;15.582;2023-06-22T15:48:59;8.90;;;6.63;;
75437;SDS011;64015;49.392;15.582;2023-06-22T15:51:27;11.48;;;6.70;;
75437;SDS011;64015;49.392;15.582;2023-06-22T15:53:54;10.35;;;5.80;;
75437;SDS011;64015;49.392;15.582;2023-06-22T15:56:20;7.95;;;6.28;;
75437;SDS011;64015;49.392;15.582;2023-06-22T15:58:46;8.57;;;6.22;;
75437;SDS011;64015;49.392;15.582;2023-06-22T16:01:12;8.45;;;5.95;;
75437;SDS011;64015;49.392;15.582;2023-06-22T16:03:39;8.20;;;5.95;;
75437;SDS011;64015;49.392;15.582;2023-06-22T16:06:06;9.32;;;5.72;;
75437;SDS011;64015;49.392;15.582;2023-06-22T16:08:31;8.00;;;5.38;;
75437;SDS011;64015;49.392;15.582;2023-06-22T16:10:59;7.88;;;5.50;;
75437;SDS011;64015;49.392;15.582;2023-06-22T16:16:26;8.45;;;5.38;;
75437;SDS011;64015;49.392;15.582;2023-06-22T16:18:52;7.18;;;4.80;;
75437;SDS011;64015;49.392;15.582;2023-06-22T16:21:17;7.43;;;5.15;;
75437;SDS011;64015;49.392;15.582;2023-06-22T16:23:43;8.02;;;4.85;;
75437;SDS011;64015;49.392;15.582;2023-06-22T16:26:09;9.20;;;4.60;;
75437;SDS011;64015;49.392;15.582;2023-06-22T16:28:35;6.15;;;5.30;;
75437;SDS011;64015;49.392;15.582;2023-06-22T16:31:00;8.50;;;5.72;;
75437;SDS011;64015;49.392;15.582;2023-06-22T16:33:29;8.27;;;4.95;;
75437;SDS011;64015;49.392;15.582;2023-06-22T16:35:57;8.02;;;5.25;;
75437;SDS011;64015;49.392;15.582;2023-06-22T16:38:30;9.80;;;4.50;;
75437;SDS011;64015;49.392;15.582;2023-06-22T16:40:57;6.20;;;4.75;;
75437;SDS011;64015;49.392;15.582;2023-06-22T16:43:23;7.47;;;5.57;;
75437;SDS011;64015;49.392;15.582;2023-06-22T16:45:51;8.10;;;6.53;;
75437;SDS011;64015;49.392;15.582;2023-06-22T16:48:17;8.48;;;6.15;;
75437;SDS011;64015;49.392;15.582;2023-06-22T16:50:42;9.25;;;5.30;;
75437;SDS011;64015;49.392;15.582;2023-06-22T16:53:13;8.10;;;4.95;;
75437;SDS011;64015;49.392;15.582;2023-06-22T16:55:40;8.32;;;4.72;;
75437;SDS011;64015;49.392;15.582;2023-06-22T16:58:08;8.25;;;5.18;;
75437;SDS011;64015;49.392;15.582;2023-06-22T17:00:42;6.55;;;5.28;;
75437;SDS011;64015;49.392;15.582;2023-06-22T17:03:11;9.10;;;5.13;;
75437;SDS011;64015;49.392;15.582;2023-06-22T17:05:42;9.30;;;5.82;;
75437;SDS011;64015;49.392;15.582;2023-06-22T17:08:08;7.75;;;5.13;;
75437;SDS011;64015;49.392;15.582;2023-06-22T17:10:39;11.65;;;5.63;;
75437;SDS011;64015;49.392;15.582;2023-06-22T17:13:06;7.70;;;5.25;;
75437;SDS011;64015;49.392;15.582;2023-06-22T17:15:33;8.02;;;5.03;;
75437;SDS011;64015;49.392;15.582;2023-06-22T17:18:02;6.97;;;4.88;;
75437;SDS011;64015;49.392;15.582;2023-06-22T17:20:29;9.52;;;4.90;;
75437;SDS011;64015;49.392;15.582;2023-06-22T17:25:20;8.77;;;4.65;;
75437;SDS011;64015;49.392;15.582;2023-06-22T17:27:49;11.48;;;4.72;;
75437;SDS011;64015;49.392;15.582;2023-06-22T17:30:15;9.20;;;4.70;;
75437;SDS011;64015;49.392;15.582;2023-06-22T17:32:46;8.38;;;4.63;;
75437;SDS011;64015;49.392;15.582;2023-06-22T17:35:13;8.65;;;4.63;;
75437;SDS011;64015;49.392;15.582;2023-06-22T17:37:46;7.82;;;4.78;;
75437;SDS011;64015;49.392;15.582;2023-06-22T17:40:14;7.68;;;4.63;;
75437;SDS011;64015;49.392;15.582;2023-06-22T17:42:41;6.55;;;4.18;;
75437;SDS011;64015;49.392;15.582;2023-06-22T17:45:13;8.48;;;4.18;;
75437;SDS011;64015;49.392;15.582;2023-06-22T17:47:47;8.98;;;4.40;;
75437;SDS011;64015;49.392;15.582;2023-06-22T17:50:14;6.72;;;4.18;;
75437;SDS011;64015;49.392;15.582;2023-06-22T17:52:39;10.10;;;4.47;;
75437;SDS011;64015;49.392;15.582;2023-06-22T17:55:05;9.27;;;4.10;;
75437;SDS011;64015;49.392;15.582;2023-06-22T17:57:35;7.50;;;4.38;;
75437;SDS011;64015;49.392;15.582;2023-06-22T18:00:06;8.18;;;4.32;;
75437;SDS011;64015;49.392;15.582;2023-06-22T18:02:41;7.05;;;4.10;;
75437;SDS011;64015;49.392;15.582;2023-06-22T18:05:09;7.78;;;4.43;;
75437;SDS011;64015;49.392;15.582;2023-06-22T18:07:36;7.38;;;4.55;;
75437;SDS011;64015;49.392;15.582;2023-06-22T18:10:03;10.55;;;4.90;;
75437;SDS011;64015;49.392;15.582;2023-06-22T18:12:31;7.78;;;4.35;;
75437;SDS011;64015;49.392;15.582;2023-06-22T18:14:57;10.43;;;4.85;;
75437;SDS011;64015;49.392;15.582;2023-06-22T18:17:23;9.77;;;4.60;;
75437;SDS011;64015;49.392;15.582;2023-06-22T18:19:50;8.52;;;4.65;;
75437;SDS011;64015;49.392;15.582;2023-06-22T18:22:17;6.38;;;4.50;;
75437;SDS011;64015;49.392;15.582;2023-06-22T18:24:43;8.60;;;4.35;;
75437;SDS011;64015;49.392;15.582;2023-06-22T18:27:10;7.07;;;4.32;;
75437;SDS011;64015;49.392;15.582;2023-06-22T18:32:04;9.70;;;4.68;;
75437;SDS011;64015;49.392;15.582;2023-06-22T18:34:30;11.38;;;4.43;;
75437;SDS011;64015;49.392;15.582;2023-06-22T18:36:57;8.02;;;4.25;;
75437;SDS011;64015;49.392;15.582;2023-06-22T18:39:24;10.15;;;4.25;;
75437;SDS011;64015;49.392;15.582;2023-06-22T18:41:52;10.60;;;4.80;;
75437;SDS011;64015;49.392;15.582;2023-06-22T18:44:20;8.20;;;4.40;;
75437;SDS011;64015;49.392;15.582;2023-06-22T18:46:50;10.75;;;4.75;;
75437;SDS011;64015;49.392;15.582;2023-06-22T18:49:18;8.93;;;5.47;;
75437;SDS011;64015;49.392;15.582;2023-06-22T18:51:55;9.27;;;4.78;;
75437;SDS011;64015;49.392;15.582;2023-06-22T18:54:22;9.38;;;4.75;;
75437;SDS011;64015;49.392;15.582;2023-06-22T18:56:58;8.90;;;4.53;;
75437;SDS011;64015;49.392;15.582;2023-06-22T19:05:06;10.30;;;5.35;;
75437;SDS011;64015;49.392;15.582;2023-06-22T19:21:25;11.80;;;4.95;;
75437;SDS011;64015;49.392;15.582;2023-06-22T19:23:34;9.93;;;5.57;;
75437;SDS011;64015;49.392;15.582;2023-06-22T19:26:12;9.07;;;5.35;;
75437;SDS011;64015;49.392;15.582;2023-06-22T19:28:54;10.10;;;4.88;;
75437;SDS011;64015;49.392;15.582;2023-06-22T19:31:25;11.88;;;5.68;;
75437;SDS011;64015;49.392;15.582;2023-06-22T19:33:53;8.23;;;5.13;;
75437;SDS011;64015;49.392;15.582;2023-06-22T19:36:25;8.90;;;5.22;;
75437;SDS011;64015;49.392;15.582;2023-06-22T19:38:57;9.60;;;5.53;;
75437;SDS011;64015;49.392;15.582;2023-06-22T19:41:23;7.85;;;5.50;;
75437;SDS011;64015;49.392;15.582;2023-06-22T19:43:49;10.38;;;5.50;;
75437;SDS011;64015;49.392;15.582;2023-06-22T19:46:16;10.18;;;5.40;;
75437;SDS011;64015;49.392;15.582;2023-06-22T19:51:08;8.90;;;6.10;;
75437;SDS011;64015;49.392;15.582;2023-06-22T19:53:39;13.50;;;6.70;;
75437;SDS011;64015;49.392;15.582;2023-06-22T19:56:06;10.88;;;6.32;;
75437;SDS011;64015;49.392;15.582;2023-06-22T19:58:32;9.40;;;6.10;;
75437;SDS011;64015;49.392;15.582;2023-06-22T20:01:01;12.88;;;6.13;;
75437;SDS011;64015;49.392;15.582;2023-06-22T20:05:54;11.88;;;6.05;;
75437;SDS011;64015;49.392;15.582;2023-06-22T20:10:47;12.38;;;6.25;;
75437;SDS011;64015;49.392;15.582;2023-06-22T20:13:14;14.00;;;6.68;;
75437;SDS011;64015;49.392;15.582;2023-06-22T20:20:35;13.35;;;6.50;;
75437;SDS011;64015;49.392;15.582;2023-06-22T20:23:03;9.43;;;5.78;;
75437;SDS011;64015;49.392;15.582;2023-06-22T20:25:31;10.27;;;5.82;;
75437;SDS011;64015;49.392;15.582;2023-06-22T20:28:16;14.93;;;5.97;;
75437;SDS011;64015;49.392;15.582;2023-06-22T20:30:54;13.13;;;6.20;;
75437;SDS011;64015;49.392;15.582;2023-06-22T20:33:27;8.23;;;5.32;;
75437;SDS011;64015;49.392;15.582;2023-06-22T20:35:52;12.50;;;5.70;;
75437;SDS011;64015;49.392;15.582;2023-06-22T20:38:19;12.80;;;6.72;;
75437;SDS011;64015;49.392;15.582;2023-06-22T20:40:48;8.98;;;5.68;;